createdAt,value
2022-10-25T00:02:14.950Z,100902.94
2022-10-25T00:04:42.235Z,100898.09
2022-10-25T00:07:09.369Z,100886.25
2022-10-25T00:09:36.505Z,100891.78
2022-10-25T00:12:04.121Z,100895.81
2022-10-25T00:14:31.502Z,100900.34
2022-10-25T00:16:58.755Z,100896.50
2022-10-25T00:19:26.869Z,100887.91
2022-10-25T00:21:53.989Z,100882.00
2022-10-25T00:24:21.104Z,100875.72
2022-10-25T00:26:48.198Z,100878.00
2022-10-25T00:29:16.484Z,100875.47
2022-10-25T00:31:43.630Z,100881.47
2022-10-25T00:34:10.781Z,100884.66
2022-10-25T00:36:37.897Z,100889.09
2022-10-25T00:39:05.033Z,100886.41
2022-10-25T00:41:33.578Z,100891.06
2022-10-25T00:44:19.420Z,100881.97
2022-10-25T00:46:46.561Z,100891.06
2022-10-25T00:49:19.286Z,100883.84
2022-10-25T00:51:50.798Z,100874.03
2022-10-25T00:56:50.602Z,100869.59
2022-10-25T00:59:22.397Z,100870.59
2022-10-25T01:01:49.931Z,100875.31
2022-10-25T01:04:18.425Z,100878.19
2022-10-25T01:06:46.585Z,100877.72
2022-10-25T01:09:16.081Z,100881.47
2022-10-25T01:11:43.219Z,100880.00
2022-10-25T01:14:12.749Z,100873.19
2022-10-25T01:16:39.809Z,100878.34
2022-10-25T01:19:17.497Z,100880.97
2022-10-25T01:21:47.437Z,100876.38
2022-10-25T01:24:33.050Z,100872.81
2022-10-25T01:27:12.225Z,100879.56
2022-10-25T01:29:45.273Z,100879.34
2022-10-25T01:32:18.808Z,100887.56
2022-10-25T01:34:52.964Z,100892.63
2022-10-25T01:37:27.440Z,100885.81
2022-10-25T01:40:01.381Z,100885.13
2022-10-25T01:42:33.027Z,100884.63
2022-10-25T01:45:15.513Z,100883.94
2022-10-25T01:47:53.898Z,100882.16
2022-10-25T01:50:23.769Z,100871.00
2022-10-25T01:52:50.909Z,100873.31
2022-10-25T01:55:18.946Z,100864.09
2022-10-25T01:57:52.237Z,100867.28
2022-10-25T02:00:23.667Z,100870.13
2022-10-25T02:02:56.881Z,100869.06
2022-10-25T02:05:30.428Z,100859.75
2022-10-25T02:08:04.874Z,100863.88
2022-10-25T02:10:43.988Z,100864.34
2022-10-25T02:13:14.211Z,100873.63
2022-10-25T02:15:43.745Z,100885.34
2022-10-25T02:18:14.465Z,100885.25
2022-10-25T02:20:45.872Z,100895.63
2022-10-25T02:23:14.855Z,100902.13
2022-10-25T02:25:42.612Z,100902.91
2022-10-25T02:28:11.505Z,100907.03
2022-10-25T02:30:40.213Z,100915.44
2022-10-25T02:33:07.290Z,100917.09
2022-10-25T02:35:34.533Z,100904.00
2022-10-25T02:38:01.701Z,100898.00
2022-10-25T02:40:28.854Z,100899.28
2022-10-25T02:42:56.101Z,100883.78
2022-10-25T02:45:23.161Z,100875.44
2022-10-25T02:47:50.663Z,100873.31
2022-10-25T02:50:17.757Z,100874.75
2022-10-25T02:52:45.275Z,100868.56
2022-10-25T02:55:12.667Z,100869.34
2022-10-25T02:57:39.851Z,100874.09
2022-10-25T03:00:07.864Z,100877.34
2022-10-25T03:02:35.187Z,100872.66
2022-10-25T03:05:02.301Z,100866.66
2022-10-25T03:07:29.436Z,100864.06
2022-10-25T03:09:56.548Z,100867.69
2022-10-25T03:12:23.702Z,100855.91
2022-10-25T03:14:50.802Z,100862.63
2022-10-25T03:17:17.961Z,100868.56
2022-10-25T03:19:45.061Z,100862.53
2022-10-25T03:22:12.122Z,100862.25
2022-10-25T03:24:39.221Z,100869.09
2022-10-25T03:27:06.321Z,100863.81
2022-10-25T03:29:33.418Z,100872.31
2022-10-25T03:32:00.574Z,100876.88
2022-10-25T03:34:27.743Z,100871.34
2022-10-25T03:36:54.936Z,100870.53
2022-10-25T03:39:22.002Z,100869.75
2022-10-25T03:41:49.199Z,100873.56
2022-10-25T03:44:16.539Z,100877.75
2022-10-25T03:46:43.654Z,100879.25
2022-10-25T03:49:10.835Z,100887.00
2022-10-25T03:51:37.949Z,100900.78
2022-10-25T03:54:05.113Z,100900.28
2022-10-25T03:56:32.188Z,100900.00
2022-10-25T03:58:59.308Z,100894.91
2022-10-25T04:01:26.542Z,100893.94
2022-10-25T04:03:53.726Z,100897.19
2022-10-25T04:06:20.865Z,100891.34
2022-10-25T04:08:47.953Z,100895.41
2022-10-25T04:11:15.083Z,100900.59
2022-10-25T04:13:42.102Z,100904.44
2022-10-25T04:16:09.854Z,100907.66
2022-10-25T04:18:36.975Z,100897.19
2022-10-25T04:21:04.104Z,100903.06
2022-10-25T04:23:31.441Z,100907.81
2022-10-25T04:25:58.598Z,100907.00
2022-10-25T04:28:26.172Z,100910.84
2022-10-25T04:30:53.308Z,100918.81
2022-10-25T04:33:20.379Z,100922.53
2022-10-25T04:35:56.977Z,100939.94
2022-10-25T04:38:24.141Z,100948.41
2022-10-25T04:40:55.138Z,100952.94
2022-10-25T04:43:22.503Z,100964.81
2022-10-25T04:45:49.658Z,100971.69
2022-10-25T04:48:17.482Z,100965.88
2022-10-25T04:50:45.114Z,100954.31
2022-10-25T04:53:12.238Z,100947.66
2022-10-25T04:55:39.418Z,100931.66
2022-10-25T04:58:06.533Z,100931.50
2022-10-25T05:00:33.730Z,100936.38
2022-10-25T05:03:00.964Z,100943.19
2022-10-25T05:05:28.166Z,100959.03
2022-10-25T05:07:55.291Z,100979.63
2022-10-25T05:10:22.473Z,100969.84
2022-10-25T05:12:49.990Z,100949.38
2022-10-25T05:15:17.324Z,100969.72
2022-10-25T05:17:44.382Z,100981.50
2022-10-25T05:20:11.528Z,100971.44
2022-10-25T05:22:38.696Z,100969.78
2022-10-25T05:25:06.099Z,100971.44
2022-10-25T05:27:36.588Z,100974.38
2022-10-25T05:30:03.899Z,100968.91
2022-10-25T05:32:31.033Z,100972.47
2022-10-25T05:34:58.165Z,100968.66
2022-10-25T05:37:25.312Z,100976.28
2022-10-25T05:39:52.440Z,100987.19
2022-10-25T05:42:19.659Z,101003.59
2022-10-25T05:44:46.704Z,100997.31
2022-10-25T05:47:13.859Z,100991.53
2022-10-25T05:49:42.377Z,100983.06
2022-10-25T05:52:09.521Z,100986.69
2022-10-25T05:54:36.690Z,100990.50
2022-10-25T05:57:03.835Z,100989.56
2022-10-25T05:59:31.001Z,101001.03
2022-10-25T06:01:58.270Z,100995.97
2022-10-25T06:04:25.621Z,101005.97
2022-10-25T06:06:53.172Z,101000.38
2022-10-25T06:09:20.348Z,101001.81
2022-10-25T06:11:47.468Z,101007.28
2022-10-25T06:14:14.604Z,101011.31
2022-10-25T06:16:41.735Z,101014.13
2022-10-25T06:19:08.893Z,101009.84
2022-10-25T06:21:36.263Z,101020.38
2022-10-25T06:24:04.265Z,101026.44
2022-10-25T06:26:31.474Z,101022.78
2022-10-25T06:28:59.803Z,101033.63
2022-10-25T06:31:27.389Z,101046.13
2022-10-25T06:33:54.558Z,101050.38
2022-10-25T06:36:23.762Z,101059.44
2022-10-25T06:38:51.154Z,101060.03
2022-10-25T06:41:20.194Z,101062.91
2022-10-25T06:43:47.467Z,101062.25
2022-10-25T06:46:25.301Z,101075.88
2022-10-25T06:48:53.460Z,101075.75
2022-10-25T06:51:21.668Z,101078.03
2022-10-25T06:53:53.459Z,101079.66
2022-10-25T06:56:20.673Z,101075.50
2022-10-25T06:58:47.711Z,101072.25
2022-10-25T07:01:16.102Z,101082.16
2022-10-25T07:03:43.533Z,101090.63
2022-10-25T07:06:12.093Z,101099.66
2022-10-25T07:08:40.353Z,101090.97
2022-10-25T07:11:09.088Z,101099.59
2022-10-25T07:13:36.231Z,101102.69
2022-10-25T07:16:04.050Z,101101.09
2022-10-25T07:18:31.704Z,101106.09
2022-10-25T07:21:02.646Z,101103.91
2022-10-25T07:23:30.198Z,101105.88
2022-10-25T07:25:57.953Z,101102.88
2022-10-25T07:28:25.589Z,101115.88
2022-10-25T07:30:53.225Z,101117.47
2022-10-25T07:33:20.510Z,101115.66
2022-10-25T07:35:59.028Z,101110.75
2022-10-25T07:38:33.518Z,101123.94
2022-10-25T07:41:00.687Z,101121.16
2022-10-25T07:43:28.429Z,101127.19
2022-10-25T07:45:55.986Z,101133.44
2022-10-25T07:48:23.300Z,101143.28
2022-10-25T07:50:50.691Z,101140.66
2022-10-25T07:53:18.032Z,101144.94
2022-10-25T07:56:11.403Z,101144.78
2022-10-25T07:58:38.627Z,101151.28
2022-10-25T08:01:07.036Z,101153.81
2022-10-25T08:03:34.558Z,101159.19
2022-10-25T08:06:02.165Z,101169.03
2022-10-25T08:08:30.062Z,101170.81
2022-10-25T08:10:57.758Z,101162.56
2022-10-25T08:13:25.056Z,101173.03
2022-10-25T08:15:53.026Z,101175.16
2022-10-25T08:18:20.753Z,101176.19
2022-10-25T08:21:03.980Z,101176.13
2022-10-25T08:23:32.161Z,101177.13
2022-10-25T08:25:59.811Z,101171.34
2022-10-25T08:28:27.176Z,101162.94
2022-10-25T08:30:55.654Z,101162.94
2022-10-25T08:33:23.560Z,101168.75
2022-10-25T08:35:52.709Z,101159.22
2022-10-25T08:38:19.906Z,101159.78
2022-10-25T08:40:47.249Z,101167.44
2022-10-25T08:43:33.244Z,101168.16
2022-10-25T08:46:03.111Z,101175.44
2022-10-25T08:48:36.409Z,101171.81
2022-10-25T08:51:19.134Z,101172.91
2022-10-25T08:53:48.642Z,101176.19
2022-10-25T08:56:18.770Z,101177.84
2022-10-25T08:58:49.986Z,101174.56
2022-10-25T09:01:21.048Z,101179.94
2022-10-25T09:03:49.032Z,101177.94
2022-10-25T09:06:25.080Z,101182.09
2022-10-25T09:09:05.085Z,101174.66
2022-10-25T09:11:50.472Z,101183.91
2022-10-25T09:14:35.054Z,101180.88
2022-10-25T09:17:04.160Z,101184.53
2022-10-25T09:19:31.239Z,101187.69
2022-10-25T09:22:02.581Z,101188.91
2022-10-25T09:24:34.187Z,101192.91
2022-10-25T09:27:04.364Z,101189.59
2022-10-25T09:29:35.575Z,101195.63
2022-10-25T09:32:05.625Z,101195.97
2022-10-25T09:34:33.238Z,101202.66
2022-10-25T09:37:07.458Z,101211.41
2022-10-25T09:39:40.489Z,101216.56
2022-10-25T09:42:39.932Z,101218.03
2022-10-25T09:45:14.621Z,101220.91
2022-10-25T09:47:50.893Z,101218.19
2022-10-25T09:50:29.640Z,101225.78
2022-10-25T09:53:19.067Z,101223.56
2022-10-25T09:55:48.935Z,101229.53
2022-10-25T09:58:24.292Z,101232.69
2022-10-25T10:00:52.854Z,101235.03
2022-10-25T10:03:20.535Z,101232.69
2022-10-25T10:05:50.490Z,101238.53
2022-10-25T10:08:18.027Z,101246.72
2022-10-25T10:10:46.873Z,101238.63
2022-10-25T10:13:14.074Z,101240.44
2022-10-25T10:15:53.405Z,101231.34
2022-10-25T10:18:25.699Z,101230.06
2022-10-25T10:21:05.036Z,101235.19
2022-10-25T10:23:44.145Z,101229.13
2022-10-25T10:26:19.983Z,101230.44
2022-10-25T10:28:48.468Z,101229.03
2022-10-25T10:31:16.573Z,101231.50
2022-10-25T10:33:50.640Z,101234.53
2022-10-25T10:36:20.254Z,101219.09
2022-10-25T10:38:47.389Z,101218.84
2022-10-25T10:41:20.197Z,101213.66
2022-10-25T10:43:47.418Z,101214.53
2022-10-25T10:46:15.930Z,101211.06
2022-10-25T10:48:52.441Z,101211.59
2022-10-25T10:54:23.261Z,101213.97
2022-10-25T10:56:54.638Z,101209.69
2022-10-25T10:59:26.657Z,101207.66
2022-10-25T11:01:54.008Z,101207.50
2022-10-25T11:04:24.066Z,101210.47
2022-10-25T11:06:52.571Z,101206.34
2022-10-25T11:09:23.566Z,101205.13
2022-10-25T11:12:10.985Z,101204.19
2022-10-25T11:14:38.434Z,101202.75
2022-10-25T11:17:05.510Z,101196.09
2022-10-25T11:19:32.575Z,101199.09
2022-10-25T11:22:18.558Z,101195.44
2022-10-25T11:24:46.263Z,101194.00
2022-10-25T11:27:19.240Z,101196.53
2022-10-25T11:29:52.385Z,101199.84
2022-10-25T11:32:34.588Z,101194.13
2022-10-25T11:35:15.586Z,101182.84
2022-10-25T11:37:47.166Z,101194.22
2022-10-25T11:40:29.608Z,101190.31
2022-10-25T11:43:06.625Z,101179.09
2022-10-25T11:45:48.470Z,101178.06
2022-10-25T11:48:33.975Z,101176.88
2022-10-25T11:51:19.383Z,101174.72
2022-10-25T11:54:04.876Z,101175.28
2022-10-25T11:56:50.585Z,101169.31
2022-10-25T11:59:23.425Z,101171.91
2022-10-25T12:01:50.598Z,101173.16
2022-10-25T12:04:38.029Z,101174.72
2022-10-25T12:07:05.261Z,101169.09
2022-10-25T12:09:32.458Z,101167.94
2022-10-25T12:12:05.277Z,101165.06
2022-10-25T12:14:34.886Z,101163.59
2022-10-25T12:17:03.326Z,101162.53
2022-10-25T12:19:36.045Z,101163.88
2022-10-25T12:22:08.124Z,101160.03
2022-10-25T12:24:48.024Z,101150.09
2022-10-25T12:27:17.716Z,101149.88
2022-10-25T12:29:48.257Z,101153.34
2022-10-25T12:32:19.154Z,101154.13
2022-10-25T12:34:53.289Z,101152.38
2022-10-25T12:37:30.445Z,101149.50
2022-10-25T12:39:57.734Z,101143.88
2022-10-25T12:42:28.275Z,101152.88
2022-10-25T12:45:10.461Z,101147.94
2022-10-25T12:47:37.577Z,101145.44
2022-10-25T12:50:12.690Z,101145.03
2022-10-25T12:52:58.641Z,101147.38
2022-10-25T12:56:01.599Z,101142.53
2022-10-25T12:58:43.791Z,101131.50
2022-10-25T13:01:11.035Z,101132.06
2022-10-25T13:03:57.066Z,101124.84
2022-10-25T13:06:30.313Z,101134.09
2022-10-25T13:09:29.888Z,101133.03
2022-10-25T13:11:59.428Z,101126.47
2022-10-25T13:14:26.977Z,101128.00
2022-10-25T13:17:14.048Z,101132.16
2022-10-25T13:19:56.695Z,101124.78
2022-10-25T13:22:39.261Z,101116.09
2022-10-25T13:25:12.778Z,101116.19
2022-10-25T13:27:40.891Z,101118.78
2022-10-25T13:30:08.109Z,101115.03
2022-10-25T13:32:36.854Z,101119.38
2022-10-25T13:35:25.102Z,101130.97
2022-10-25T13:38:08.214Z,101118.31
2022-10-25T13:40:37.720Z,101108.75
2022-10-25T13:43:18.764Z,101108.94
2022-10-25T13:45:47.570Z,101118.78
2022-10-25T13:48:14.663Z,101114.16
2022-10-25T13:50:43.947Z,101114.16
2022-10-25T13:53:17.278Z,101109.81
2022-10-25T13:55:46.129Z,101107.19
2022-10-25T13:58:31.854Z,101107.88
2022-10-25T14:01:14.785Z,101108.84
2022-10-25T14:03:51.403Z,101118.03
2022-10-25T14:06:23.964Z,101110.88
2022-10-25T14:09:12.874Z,101110.78
2022-10-25T14:11:40.301Z,101104.50
2022-10-25T14:14:16.264Z,101107.31
2022-10-25T14:16:52.522Z,101100.91
2022-10-25T14:19:25.861Z,101102.84
2022-10-25T14:21:53.768Z,101090.50
2022-10-25T14:24:21.324Z,101101.50
2022-10-25T14:26:50.139Z,101103.44
2022-10-25T14:29:19.862Z,101106.16
2022-10-25T14:31:47.083Z,101098.91
2022-10-25T14:34:21.809Z,101104.31
2022-10-25T14:36:50.766Z,101104.41
2022-10-25T14:39:19.883Z,101102.69
2022-10-25T14:41:51.548Z,101103.44
2022-10-25T14:44:29.530Z,101105.19
2022-10-25T14:46:57.590Z,101097.94
2022-10-25T14:49:25.612Z,101104.22
2022-10-25T14:51:59.537Z,101102.38
2022-10-25T14:54:32.606Z,101102.47
2022-10-25T14:57:01.708Z,101098.13
2022-10-25T14:59:50.113Z,101100.09
2022-10-25T15:02:34.315Z,101100.34
2022-10-25T15:05:02.354Z,101101.44
2022-10-25T15:07:36.205Z,101097.00
2022-10-25T15:12:36.233Z,101096.13
2022-10-25T15:15:22.183Z,101097.09
2022-10-25T15:17:52.772Z,101088.16
2022-10-25T15:20:19.877Z,101092.72
2022-10-25T15:22:48.961Z,101093.69
2022-10-25T15:25:28.026Z,101089.25
2022-10-25T15:27:55.182Z,101088.47
2022-10-25T15:30:37.675Z,101090.44
2022-10-25T15:33:05.986Z,101095.06
2022-10-25T15:35:39.752Z,101092.53
2022-10-25T15:38:09.120Z,101089.06
2022-10-25T15:40:36.880Z,101108.97
2022-10-25T15:43:04.042Z,101098.34
2022-10-25T15:45:34.100Z,101102.00
2022-10-25T15:48:03.228Z,101109.34
2022-10-25T15:50:30.363Z,101107.63
2022-10-25T15:52:58.318Z,101106.00
2022-10-25T15:55:32.988Z,101106.19
2022-10-25T15:58:05.859Z,101108.25
2022-10-25T16:00:35.376Z,101106.63
2022-10-25T16:03:03.110Z,101112.13
2022-10-25T16:05:32.096Z,101115.13
2022-10-25T16:07:59.720Z,101122.38
2022-10-25T16:10:27.589Z,101111.63
2022-10-25T16:12:59.509Z,101118.00
2022-10-25T16:15:27.041Z,101112.72
2022-10-25T16:17:54.189Z,101108.31
2022-10-25T16:20:22.642Z,101112.00
2022-10-25T16:22:50.130Z,101112.19
2022-10-25T16:25:18.004Z,101114.25
2022-10-25T16:27:46.452Z,101115.38
2022-10-25T16:30:18.541Z,101121.84
2022-10-25T16:32:46.234Z,101121.16
2022-10-25T16:35:14.272Z,101123.00
2022-10-25T16:37:44.524Z,101127.63
2022-10-25T16:40:15.477Z,101128.88
2022-10-25T16:42:46.494Z,101129.13
2022-10-25T16:45:23.085Z,101128.47
2022-10-25T16:47:50.322Z,101130.56
2022-10-25T16:50:23.086Z,101130.66
2022-10-25T16:52:50.900Z,101133.44
2022-10-25T16:55:18.837Z,101134.41
2022-10-25T16:57:46.332Z,101134.22
2022-10-25T17:00:14.470Z,101133.81
2022-10-25T17:02:41.535Z,101143.75
2022-10-25T17:05:13.463Z,101150.03
2022-10-25T17:07:43.160Z,101140.38
2022-10-25T17:10:11.111Z,101143.06
2022-10-25T17:12:49.295Z,101151.50
2022-10-25T17:15:17.234Z,101155.38
2022-10-25T17:17:45.867Z,101154.41
2022-10-25T17:20:14.399Z,101157.16
2022-10-25T17:22:42.254Z,101159.16
2022-10-25T17:25:09.661Z,101154.63
2022-10-25T17:27:39.700Z,101154.81
2022-10-25T17:30:07.956Z,101152.03
2022-10-25T17:32:35.232Z,101168.69
2022-10-25T17:35:02.519Z,101162.75
2022-10-25T17:37:29.827Z,101168.38
2022-10-25T17:39:56.953Z,101176.91
2022-10-25T17:42:23.992Z,101178.22
2022-10-25T17:44:51.197Z,101183.88
2022-10-25T17:47:18.352Z,101188.50
2022-10-25T17:49:45.462Z,101180.53
2022-10-25T17:52:12.585Z,101188.75
2022-10-25T17:54:39.809Z,101186.22
2022-10-25T17:57:07.001Z,101185.53
2022-10-25T17:59:35.663Z,101185.00
2022-10-25T18:02:02.992Z,101188.75
2022-10-25T18:04:40.784Z,101184.28
2022-10-25T18:07:15.226Z,101186.22
2022-10-25T18:09:42.394Z,101200.00
2022-10-25T18:12:09.674Z,101205.53
2022-10-25T18:14:36.887Z,101205.47
2022-10-25T18:17:04.071Z,101212.72
2022-10-25T18:19:31.198Z,101203.03
2022-10-25T18:22:00.719Z,101213.22
2022-10-25T18:24:29.201Z,101212.41
2022-10-25T18:26:56.851Z,101212.59
2022-10-25T18:29:24.065Z,101217.13
2022-10-25T18:31:51.476Z,101214.25
2022-10-25T18:34:19.519Z,101209.03
2022-10-25T18:36:46.712Z,101212.00
2022-10-25T18:39:13.906Z,101201.09
2022-10-25T18:41:42.435Z,101206.50
2022-10-25T18:44:14.384Z,101207.38
2022-10-25T18:46:42.810Z,101212.22
2022-10-25T18:49:12.321Z,101197.31
2022-10-25T18:51:40.623Z,101218.28
2022-10-25T18:54:11.787Z,101210.50
2022-10-25T18:56:38.942Z,101209.19
2022-10-25T18:59:06.121Z,101210.06
2022-10-25T19:01:33.650Z,101204.66
2022-10-25T19:04:01.821Z,101200.16
2022-10-25T19:06:29.598Z,101204.59
2022-10-25T19:08:56.917Z,101209.72
2022-10-25T19:11:23.989Z,101221.47
2022-10-25T19:13:57.232Z,101218.06
2022-10-25T19:16:24.432Z,101215.50
2022-10-25T19:18:51.535Z,101224.56
2022-10-25T19:21:18.908Z,101225.53
2022-10-25T19:23:46.605Z,101213.63
2022-10-25T19:26:16.467Z,101208.28
2022-10-25T19:28:43.640Z,101210.22
2022-10-25T19:31:20.177Z,101208.72
2022-10-25T19:33:48.204Z,101218.69
2022-10-25T19:36:15.638Z,101214.19
2022-10-25T19:38:45.046Z,101217.91
2022-10-25T19:41:14.243Z,101210.06
2022-10-25T19:43:41.485Z,101215.59
2022-10-25T19:46:08.781Z,101214.72
2022-10-25T19:48:36.339Z,101212.91
2022-10-25T19:51:08.808Z,101212.28
2022-10-25T19:53:36.377Z,101223.06
2022-10-25T19:56:08.532Z,101220.59
2022-10-25T19:58:36.377Z,101212.69
2022-10-25T20:01:08.276Z,101216.50
2022-10-25T20:03:36.008Z,101218.06
2022-10-25T20:06:07.836Z,101230.75
2022-10-25T20:08:35.552Z,101230.50
2022-10-25T20:11:02.804Z,101228.06
2022-10-25T20:13:30.429Z,101229.97
2022-10-25T20:15:57.983Z,101229.41
2022-10-25T20:18:26.484Z,101227.97
2022-10-25T20:20:57.272Z,101230.66
2022-10-25T20:23:24.384Z,101232.34
2022-10-25T20:25:51.479Z,101234.38
2022-10-25T20:28:18.651Z,101242.47
2022-10-25T20:30:45.800Z,101239.69
2022-10-25T20:33:12.990Z,101244.38
2022-10-25T20:35:41.427Z,101240.81
2022-10-25T20:38:12.485Z,101236.22
2022-10-25T20:40:40.184Z,101250.72
2022-10-25T20:43:07.300Z,101249.19
2022-10-25T20:45:34.485Z,101241.66
2022-10-25T20:48:01.757Z,101239.81
2022-10-25T20:50:29.699Z,101231.91
2022-10-25T20:53:12.348Z,101242.81
2022-10-25T20:55:39.500Z,101235.91
2022-10-25T20:58:07.066Z,101239.59
2022-10-25T21:00:34.165Z,101241.47
2022-10-25T21:03:01.336Z,101240.75
2022-10-25T21:05:28.552Z,101244.41
2022-10-25T21:07:55.660Z,101241.00
2022-10-25T21:10:22.984Z,101244.56
2022-10-25T21:12:50.083Z,101243.53
2022-10-25T21:15:17.235Z,101248.75
2022-10-25T21:17:48.293Z,101250.75
2022-10-25T21:20:15.714Z,101245.56
2022-10-25T21:22:42.863Z,101252.84
2022-10-25T21:25:10.010Z,101259.13
2022-10-25T21:27:37.280Z,101259.19
2022-10-25T21:30:04.607Z,101254.84
2022-10-25T21:32:31.702Z,101249.56
2022-10-25T21:34:58.758Z,101259.28
2022-10-25T21:37:25.969Z,101267.34
2022-10-25T21:39:53.101Z,101271.19
2022-10-25T21:42:20.437Z,101265.16
2022-10-25T21:44:47.499Z,101272.47
2022-10-25T21:47:14.613Z,101269.97
2022-10-25T21:49:41.729Z,101275.03
2022-10-25T21:52:08.924Z,101267.84
2022-10-25T21:54:36.007Z,101270.84
2022-10-25T21:57:03.120Z,101269.63
2022-10-25T21:59:30.336Z,101267.50
2022-10-25T22:01:57.639Z,101249.50
2022-10-25T22:04:25.248Z,101255.94
2022-10-25T22:06:52.480Z,101260.75
2022-10-25T22:09:19.974Z,101263.31
2022-10-25T22:11:49.780Z,101273.72
2022-10-25T22:14:17.331Z,101275.16
2022-10-25T22:16:44.804Z,101284.06
2022-10-25T22:19:14.222Z,101277.94
2022-10-25T22:21:41.793Z,101275.03
2022-10-25T22:24:09.913Z,101277.59
2022-10-25T22:26:37.918Z,101274.81
2022-10-25T22:29:05.606Z,101278.28
2022-10-25T22:31:33.086Z,101273.38
2022-10-25T22:34:01.768Z,101280.66
2022-10-25T22:36:30.652Z,101277.78
2022-10-25T22:38:57.979Z,101277.38
2022-10-25T22:41:26.452Z,101277.66
2022-10-25T22:43:53.981Z,101280.13
2022-10-25T22:46:25.654Z,101274.97
2022-10-25T22:48:53.776Z,101278.53
2022-10-25T22:51:21.649Z,101276.63
2022-10-25T22:53:48.878Z,101265.94
2022-10-25T22:56:17.186Z,101281.88
2022-10-25T22:58:48.389Z,101282.81
2022-10-25T23:01:16.960Z,101284.66
2022-10-25T23:03:45.382Z,101286.47
2022-10-25T23:06:13.984Z,101292.59
2022-10-25T23:08:41.386Z,101297.13
2022-10-25T23:11:11.600Z,101299.34
2022-10-25T23:13:39.233Z,101299.09
2022-10-25T23:16:06.581Z,101293.44
2022-10-25T23:18:34.172Z,101301.28
2022-10-25T23:21:02.239Z,101302.31
2022-10-25T23:23:32.621Z,101303.94
2022-10-25T23:26:00.548Z,101301.19
2022-10-25T23:28:30.183Z,101294.50
2022-10-25T23:31:02.549Z,101299.09
2022-10-25T23:33:29.709Z,101294.44
2022-10-25T23:36:00.527Z,101305.00
2022-10-25T23:38:28.564Z,101296.13
2022-10-25T23:40:55.697Z,101282.53
2022-10-25T23:43:22.809Z,101285.81
2022-10-25T23:45:49.924Z,101285.56
2022-10-25T23:48:17.039Z,101284.91
2022-10-25T23:50:44.215Z,101293.78
2022-10-25T23:53:11.345Z,101299.47
2022-10-25T23:55:39.003Z,101296.50
2022-10-25T23:58:06.161Z,101303.91
